首页
METAR-TAF:

METAR-TAF

机场 :

Carroll, 艾奥瓦州, 美国

纬度: 42-03N, 经度: 094-47W, 海拔: 375米

当前天气观测

该预报发布于10分钟前的20:15 UTC
静风
温度 -5°C
湿度 93%
气压 1021 hPa
能見度: 9.7公里
少量云层高于900英尺
阴天层高于1300英尺
轻雾

METAR: KCIN 292015Z AUTO 00000KT 6SM BR FEW009 OVC013 M05/M06 A3016 RMK AO2

时间: 14:25 (20:25 UTC)


TAF: 丢失

超过4000个机场的气象观测和天气预报(METAR&TAF报告)。

可查询的气象台以黄色和红色小点在地图上表示。

将鼠标移到小点上方,可查看气象台名称。

然后点击查看天气观测和预报。

如需切换地图:点击带黑十字的绿色按钮放大地图;点击带横线的绿色按钮缩小地图;或者点击绿色箭头查看邻近地区的地图。


METAR-TAF: